Time;durP1;ratioP1;P1;durP2;ratioP2;P2;SDS_P1;SDS_P2;PMS_P1;PMS_P2;Temp;Humidity;BMP_temperature;BMP_pressure;BME280_temperature;BME280_humidity;BME280_pressure;Samples;Min_cycle;Max_cycle;Signal;HPM_P1;HPM_P2
2021/03/29 00:01:49;;;;;;;;;;;;;;;1.72;63.18;97927.79;1785812;80;20230;-62
2021/03/29 00:04:16;;;;;;;;;;;;;;;1.63;63.50;97929.21;1776408;79;20206;-62
2021/03/29 00:06:45;;;;;;;;;;;;;;;1.60;63.92;97932.64;1768158;80;21262;-60
2021/03/29 00:09:13;;;;;;;;;;;;;;;1.53;64.03;97928.90;1756889;80;20224;-61
2021/03/29 00:11:42;;;;;;;;;;;;;;;1.49;64.28;97927.27;1795891;79;20233;-62
2021/03/29 00:14:09;;;;;;;;;;;;;;;1.45;64.35;97927.73;1800560;79;20234;-61
2021/03/29 00:16:38;;;;;;;;;;;;;;;1.42;64.50;97926.05;1783804;79;20227;-61
2021/03/29 00:19:08;;;;;;;;;;;;;;;1.38;64.68;97923.55;1774854;79;20244;-61
2021/03/29 00:21:37;;;;;;;;;;;;;;;1.37;64.61;97922.70;1768856;81;21275;-62
2021/03/29 00:24:07;;;;;;;;;;;;;;;1.36;64.73;97929.12;1763773;79;20250;-60
2021/03/29 00:26:37;;;;;;;;;;;;;;;1.36;64.80;97927.84;1797866;79;20482;-60
2021/03/29 00:29:06;;;;;;;;;;;;;;;1.33;64.78;97928.70;1799803;79;20234;-60
2021/03/29 00:31:35;;;;;;;;;;;;;;;1.31;64.94;97929.17;1786284;79;20246;-60
2021/03/29 00:34:03;;;;;;;;;;;;;;;1.29;65.02;97925.80;1752317;81;20247;-61
2021/03/29 00:36:31;;;;;;;;;;;;;;;1.28;64.99;97921.53;1770765;79;20227;-61
2021/03/29 00:38:59;;;;;;;;;;;;;;;1.27;65.01;97923.69;1775297;79;20225;-60
2021/03/29 00:41:28;;;;;;;;;;;;;;;1.24;65.11;97925.00;1800088;79;20230;-61
2021/03/29 00:43:57;;;;;;;;;;;;;;;1.19;65.17;97928.89;1757531;81;20228;-61
2021/03/29 00:46:24;;;;;;;;;;;;;;;1.16;65.29;97933.20;1769329;79;20248;-61
2021/03/29 00:48:52;;;;;;;;;;;;;;;1.13;65.39;97930.23;1782357;79;20279;-61
2021/03/29 00:51:23;;;;;;;;;;;;;;;1.14;65.46;97933.66;1800078;79;20218;-60
2021/03/29 00:54:00;;;;;;;;;;;;;;;1.12;65.39;97928.55;1799755;79;20497;-61
2021/03/29 00:56:29;;;;;;;;;;;;;;;1.07;65.50;97926.48;1769493;79;21411;-63
2021/03/29 00:58:57;;;;;;;;;;;;;;;1.07;65.66;97929.05;1774291;79;20214;-62
2021/03/29 01:01:28;;;;;;;;;;;;;;;1.08;65.61;97926.44;1791920;79;20223;-62
2021/03/29 01:04:00;;;;;;;;;;;;;;;1.12;65.44;97931.11;1769308;79;20247;-60
2021/03/29 01:06:37;;;;;;;;;;;;;;;1.13;65.39;97931.50;1745409;81;20231;-60
2021/03/29 01:09:09;;;;;;;;;;;;;;;1.14;65.36;97924.70;1768550;81;20220;-60
2021/03/29 01:11:41;;;;;;;;;;;;;;;1.17;65.29;97939.58;1768379;81;20230;-61
2021/03/29 01:14:11;;;;;;;;;;;;;;;1.19;65.29;97935.72;1772927;79;20222;-62
2021/03/29 01:16:42;;;;;;;;;;;;;;;1.20;65.19;97939.95;1791571;78;20170;-62
2021/03/29 01:19:16;;;;;;;;;;;;;;;1.20;65.06;97937.39;1775108;79;20227;-62
2021/03/29 01:21:53;;;;;;;;;;;;;;;1.16;65.09;97942.14;1769178;79;21155;-62
2021/03/29 01:24:53;;;;;;;;;;;;;;;1.13;65.16;97941.73;1768534;80;20543;-62
2021/03/29 01:27:23;;;;;;;;;;;;;;;1.11;65.22;97930.69;1768521;81;20256;-62
2021/03/29 01:29:51;;;;;;;;;;;;;;;1.10;65.26;97937.92;1768538;81;20216;-62
2021/03/29 01:32:19;;;;;;;;;;;;;;;1.10;65.20;97934.09;1754060;79;20208;-63
2021/03/29 01:34:46;;;;;;;;;;;;;;;1.07;65.29;97932.88;1798271;79;22090;-63
2021/03/29 01:37:14;;;;;;;;;;;;;;;1.01;65.34;97929.10;1798120;79;20127;-63
2021/03/29 01:39:42;;;;;;;;;;;;;;;0.94;65.47;97937.27;1778416;78;20280;-63
2021/03/29 01:42:10;;;;;;;;;;;;;;;0.91;65.64;97933.46;1793126;79;20519;-64
2021/03/29 01:44:37;;;;;;;;;;;;;;;0.93;65.63;97938.12;1791743;79;20681;-61
2021/03/29 01:47:05;;;;;;;;;;;;;;;0.98;65.60;97944.02;1779060;79;21193;-61
2021/03/29 01:49:33;;;;;;;;;;;;;;;1.04;65.44;97943.13;1799082;79;20210;-60
2021/03/29 01:52:00;;;;;;;;;;;;;;;1.06;65.23;97938.40;1782501;79;20216;-60
2021/03/29 01:54:28;;;;;;;;;;;;;;;1.08;65.09;97940.50;1768493;80;20635;-61
2021/03/29 01:56:57;;;;;;;;;;;;;;;1.07;65.08;97943.10;1794936;78;20221;-60
2021/03/29 01:59:25;;;;;;;;;;;;;;;1.06;65.05;97940.95;1800058;79;21189;-61
2021/03/29 02:01:53;;;;;;;;;;;;;;;1.01;65.13;97939.33;1784630;79;21190;-61
2021/03/29 02:04:20;;;;;;;;;;;;;;;0.99;65.25;97941.89;1799069;79;20123;-61
2021/03/29 02:06:48;;;;;;;;;;;;;;;0.98;65.31;97940.19;1782704;79;20220;-61
2021/03/29 02:09:15;;;;;;;;;;;;;;;0.91;65.31;97944.96;1768880;79;20241;-62
2021/03/29 02:11:42;;;;;;;;;;;;;;;0.88;65.42;97939.44;1799879;79;21103;-61
2021/03/29 02:14:10;;;;;;;;;;;;;;;0.87;65.38;97944.16;1799974;79;20237;-61
2021/03/29 02:16:37;;;;;;;;;;;;;;;0.86;65.45;97946.28;1799078;79;20489;-61
2021/03/29 02:19:04;;;;;;;;;;;;;;;0.83;65.46;97944.19;1782702;79;20222;-62
2021/03/29 02:21:34;;;;;;;;;;;;;;;0.79;65.64;97944.66;1800066;79;20241;-62
2021/03/29 02:24:04;;;;;;;;;;;;;;;0.76;65.71;97942.54;1799116;79;21199;-60
2021/03/29 02:26:34;;;;;;;;;;;;;;;0.74;65.73;97942.59;1781850;80;20275;-60
2021/03/29 02:29:02;;;;;;;;;;;;;;;0.75;65.71;97942.14;1784514;79;20533;-61
2021/03/29 02:31:31;;;;;;;;;;;;;;;0.74;65.77;97948.97;1792762;79;20255;-60
2021/03/29 02:33:58;;;;;;;;;;;;;;;0.73;65.79;97943.44;1798990;79;20227;-60
2021/03/29 02:36:26;;;;;;;;;;;;;;;0.72;65.77;97950.27;1799744;79;21339;-62
2021/03/29 02:38:54;;;;;;;;;;;;;;;0.73;65.79;97947.27;1799656;79;20217;-62
2021/03/29 02:41:23;;;;;;;;;;;;;;;0.72;65.76;97948.98;1800019;78;20316;-62
2021/03/29 02:43:51;;;;;;;;;;;;;;;0.73;65.75;97953.21;1800046;79;20214;-62
2021/03/29 02:46:18;;;;;;;;;;;;;;;0.75;65.76;97942.98;1782649;78;21770;-63
2021/03/29 02:48:46;;;;;;;;;;;;;;;0.76;65.68;97950.20;1771600;79;21393;-62
2021/03/29 02:51:14;;;;;;;;;;;;;;;0.77;65.60;97948.91;1768415;81;20257;-62
2021/03/29 02:53:54;;;;;;;;;;;;;;;0.74;65.60;97948.97;1794537;79;20564;-62
2021/03/29 02:56:24;;;;;;;;;;;;;;;0.76;65.64;97954.91;1790605;79;20292;-62
2021/03/29 02:58:55;;;;;;;;;;;;;;;0.80;65.49;97950.61;1771429;78;20275;-62
2021/03/29 03:01:26;;;;;;;;;;;;;;;0.83;65.45;97952.70;1795096;78;22447;-62
2021/03/29 03:03:53;;;;;;;;;;;;;;;0.85;65.39;97957.35;1782036;79;20474;-61
2021/03/29 03:06:26;;;;;;;;;;;;;;;0.95;65.31;97953.44;1768480;81;20240;-61
2021/03/29 03:08:53;;;;;;;;;;;;;;;1.04;65.05;97952.91;1768599;79;20508;-61
2021/03/29 03:11:20;;;;;;;;;;;;;;;1.14;64.71;97951.55;1768272;81;20496;-61
2021/03/29 03:13:48;;;;;;;;;;;;;;;1.18;64.45;97954.03;1780497;79;21193;-62
2021/03/29 03:16:18;;;;;;;;;;;;;;;1.20;64.47;97948.49;1799940;79;20131;-61
2021/03/29 03:18:47;;;;;;;;;;;;;;;1.25;64.34;97948.00;1782173;79;20216;-62
2021/03/29 03:21:16;;;;;;;;;;;;;;;1.31;64.23;97946.23;1794761;79;20225;-62
2021/03/29 03:23:56;;;;;;;;;;;;;;;1.38;64.00;97941.45;1789722;79;20241;-64
2021/03/29 03:26:24;;;;;;;;;;;;;;;1.39;63.66;97937.59;1791755;79;21200;-61
2021/03/29 03:28:52;;;;;;;;;;;;;;;1.35;63.65;97945.31;1774153;79;20691;-61
2021/03/29 03:31:19;;;;;;;;;;;;;;;1.32;63.81;97957.72;1767137;79;20216;-62
2021/03/29 03:33:46;;;;;;;;;;;;;;;1.35;63.77;97956.41;1789649;79;20300;-61
2021/03/29 03:36:16;;;;;;;;;;;;;;;1.36;63.79;97952.14;1771929;79;20508;-61
2021/03/29 03:38:45;;;;;;;;;;;;;;;1.39;63.68;97947.83;1782890;78;21476;-61
2021/03/29 03:41:14;;;;;;;;;;;;;;;1.35;63.57;97952.98;1784627;78;20285;-62
2021/03/29 03:43:45;;;;;;;;;;;;;;;1.28;63.75;97949.66;1777814;79;20289;-62
2021/03/29 03:46:21;;;;;;;;;;;;;;;1.21;63.95;97953.16;1775374;79;20544;-62
2021/03/29 03:48:48;;;;;;;;;;;;;;;1.18;64.11;97955.75;1782506;79;20236;-61
2021/03/29 03:51:16;;;;;;;;;;;;;;;1.19;64.05;97948.06;1780752;78;21290;-61
2021/03/29 03:53:43;;;;;;;;;;;;;;;1.23;63.90;97956.13;1798967;79;20218;-64
2021/03/29 03:56:10;;;;;;;;;;;;;;;1.23;63.95;97951.42;1790256;79;20223;-63
2021/03/29 03:58:37;;;;;;;;;;;;;;;1.27;63.92;97956.94;1769356;79;20244;-63
2021/03/29 04:01:06;;;;;;;;;;;;;;;1.25;63.76;97954.39;1744894;81;21641;-63
2021/03/29 04:03:34;;;;;;;;;;;;;;;1.26;63.80;97959.06;1780821;79;21201;-64
2021/03/29 04:06:02;;;;;;;;;;;;;;;1.28;63.71;97963.72;1792292;79;20255;-64
2021/03/29 04:08:32;;;;;;;;;;;;;;;1.30;63.65;97955.63;1789419;79;20281;-65
2021/03/29 04:11:00;;;;;;;;;;;;;;;1.34;63.58;97964.94;1758307;79;21997;-64
2021/03/29 04:13:32;;;;;;;;;;;;;;;1.34;63.43;97957.70;1716333;82;20228;-64
2021/03/29 04:16:00;;;;;;;;;;;;;;;1.35;63.60;97958.97;1741600;82;20305;-64
2021/03/29 04:18:29;;;;;;;;;;;;;;;1.39;63.38;97958.50;1743910;82;20443;-65
2021/03/29 04:20:57;;;;;;;;;;;;;;;1.40;63.27;97953.81;1744144;82;20226;-64
2021/03/29 04:23:25;;;;;;;;;;;;;;;1.43;63.35;97963.56;1737573;82;20218;-64
2021/03/29 04:25:54;;;;;;;;;;;;;;;1.56;62.99;97955.72;1744209;82;20411;-65
2021/03/29 04:28:21;;;;;;;;;;;;;;;1.63;62.50;97948.41;1743951;82;21393;-64
2021/03/29 04:30:49;;;;;;;;;;;;;;;1.68;62.38;97949.59;1737091;82;20229;-62
2021/03/29 04:33:18;;;;;;;;;;;;;;;1.74;61.99;97963.59;1726827;82;20508;-64
2021/03/29 04:35:48;;;;;;;;;;;;;;;1.86;61.94;97960.02;1722184;82;20218;-62
2021/03/29 04:38:15;;;;;;;;;;;;;;;2.11;61.31;97956.25;1743915;82;20238;-63
2021/03/29 04:40:43;;;;;;;;;;;;;;;2.35;60.85;97956.73;1743838;82;21219;-63
2021/03/29 04:43:11;;;;;;;;;;;;;;;2.66;59.65;97960.09;1741529;81;20247;-63
2021/03/29 04:45:39;;;;;;;;;;;;;;;2.93;58.67;97956.21;1744050;81;20238;-62
2021/03/29 04:48:07;;;;;;;;;;;;;;;3.22;58.04;97958.66;1743630;82;20661;-62
2021/03/29 04:50:36;;;;;;;;;;;;;;;3.48;57.12;97955.58;1738528;81;20269;-63
2021/03/29 04:53:04;;;;;;;;;;;;;;;3.58;56.55;97960.92;1739995;82;21217;-63
2021/03/29 04:55:32;;;;;;;;;;;;;;;3.57;56.52;97959.67;1738861;82;20256;-63
2021/03/29 04:57:59;;;;;;;;;;;;;;;3.60;56.52;97960.89;1736928;82;20393;-60
2021/03/29 05:00:27;;;;;;;;;;;;;;;3.65;56.39;97962.51;1743368;82;20218;-68
2021/03/29 05:02:54;;;;;;;;;;;;;;;3.68;55.96;97964.15;1727201;81;20224;-68
2021/03/29 05:05:22;;;;;;;;;;;;;;;3.64;56.10;97970.23;1739743;82;21398;-63
2021/03/29 05:07:50;;;;;;;;;;;;;;;3.59;56.13;97959.23;1744031;82;20226;-67
2021/03/29 05:10:17;;;;;;;;;;;;;;;3.50;56.34;97966.23;1740642;82;20242;-68
2021/03/29 05:12:44;;;;;;;;;;;;;;;3.48;56.49;97969.25;1747060;80;20229;-68
2021/03/29 05:15:14;;;;;;;;;;;;;;;3.42;56.21;97964.27;1754964;80;20216;-68
2021/03/29 05:17:41;;;;;;;;;;;;;;;3.29;56.59;97967.95;1757197;80;21382;-68
2021/03/29 05:20:10;;;;;;;;;;;;;;;3.28;57.01;97968.81;1758680;80;20552;-69
2021/03/29 05:22:37;;;;;;;;;;;;;;;3.54;56.64;97963.16;1770980;80;20222;-68
2021/03/29 05:25:06;;;;;;;;;;;;;;;3.98;55.31;97966.52;1784913;79;20242;-68
2021/03/29 05:27:33;;;;;;;;;;;;;;;4.49;54.34;97964.06;1775794;78;20253;-69
2021/03/29 05:30:01;;;;;;;;;;;;;;;5.18;52.14;97966.61;1783258;80;21219;-65
2021/03/29 05:32:28;;;;;;;;;;;;;;;5.72;50.98;97968.95;1806231;79;20221;-65
2021/03/29 05:34:57;;;;;;;;;;;;;;;6.15;49.71;97968.16;1814818;78;20224;-65
2021/03/29 05:37:25;;;;;;;;;;;;;;;6.33;49.38;97965.03;1794520;79;20315;-66
2021/03/29 05:39:54;;;;;;;;;;;;;;;6.59;48.31;97964.63;1754292;81;20244;-66
2021/03/29 05:42:22;;;;;;;;;;;;;;;6.38;47.92;97959.27;1763477;80;22561;-65
2021/03/29 05:44:53;;;;;;;;;;;;;;;6.26;48.72;97969.95;1761123;79;20216;-66
2021/03/29 05:47:20;;;;;;;;;;;;;;;6.69;48.03;97965.16;1764770;80;20241;-65
2021/03/29 05:49:49;;;;;;;;;;;;;;;7.34;46.91;97970.27;1767183;80;20225;-65
2021/03/29 05:52:16;;;;;;;;;;;;;;;7.93;45.34;97965.11;1754171;80;21537;-65
2021/03/29 05:54:45;;;;;;;;;;;;;;;8.48;44.31;97962.97;1754166;82;20245;-66
2021/03/29 05:57:14;;;;;;;;;;;;;;;9.15;43.11;97959.78;1754185;80;20240;-66
2021/03/29 05:59:42;;;;;;;;;;;;;;;9.74;41.26;97959.36;1745700;78;20294;-66
2021/03/29 06:02:10;;;;;;;;;;;;;;;10.01;40.30;97955.11;1772686;79;20273;-66
2021/03/29 06:04:47;;;;;;;;;;;;;;;10.22;40.02;97957.63;1752197;81;20234;-66
2021/03/29 06:07:26;;;;;;;;;;;;;;;10.50;39.17;97957.17;1763218;80;21256;-66
2021/03/29 06:10:08;;;;;;;;;;;;;;;10.75;38.92;97958.56;1758564;80;20241;-66
2021/03/29 06:12:43;;;;;;;;;;;;;;;11.26;38.73;97969.01;1773018;78;20221;-66
2021/03/29 06:15:12;;;;;;;;;;;;;;;12.05;36.73;97968.34;1741746;82;20217;-66
2021/03/29 06:17:39;;;;;;;;;;;;;;;12.25;35.93;97969.84;1709420;84;20227;-66
2021/03/29 06:20:08;;;;;;;;;;;;;;;12.26;36.13;97965.86;1729741;82;21205;-66
2021/03/29 06:22:37;;;;;;;;;;;;;;;12.74;35.88;97970.16;1737453;82;21418;-66
2021/03/29 06:25:21;;;;;;;;;;;;;;;13.30;34.81;97967.77;1737606;82;20482;-65
2021/03/29 06:27:58;;;;;;;;;;;;;;;13.54;33.84;97959.80;1735632;82;20191;-65
2021/03/29 06:30:27;;;;;;;;;;;;;;;13.14;34.10;97962.62;1734502;82;20502;-66
2021/03/29 06:33:12;;;;;;;;;;;;;;;12.81;34.47;97964.52;1737563;82;21171;-66
2021/03/29 06:35:40;;;;;;;;;;;;;;;12.83;34.73;97974.37;1720467;82;20237;-65
2021/03/29 06:38:14;;;;;;;;;;;;;;;12.95;34.65;97968.91;1719478;82;20234;-65
2021/03/29 06:40:48;;;;;;;;;;;;;;;13.01;34.03;97971.61;1718014;82;20292;-66
2021/03/29 06:43:20;;;;;;;;;;;;;;;12.89;34.70;97978.38;1712971;82;20492;-66
2021/03/29 06:45:54;;;;;;;;;;;;;;;12.79;35.17;97972.86;1736925;81;21383;-65
2021/03/29 06:48:31;;;;;;;;;;;;;;;13.07;34.75;97976.47;1818504;76;20172;-66
2021/03/29 06:51:26;;;;;;;;;;;;;;;13.49;33.67;97972.77;1795315;79;20223;-66
2021/03/29 06:54:07;;;;;;;;;;;;;;;14.01;33.43;97975.23;1795179;77;21186;-67
2021/03/29 06:56:42;;;;;;;;;;;;;;;14.75;32.54;97975.30;1814971;79;20133;-66
2021/03/29 06:59:15;;;;;;;;;;;;;;;15.00;31.33;97973.23;1810533;78;20222;-67
2021/03/29 07:01:49;;;;;;;;;;;;;;;14.41;31.96;97973.55;1791464;77;20306;-67
2021/03/29 07:04:24;;;;;;;;;;;;;;;13.71;33.29;97977.50;1767847;79;20245;-66
2021/03/29 07:06:52;;;;;;;;;;;;;;;13.32;33.90;97973.31;1775931;80;21203;-66
2021/03/29 07:09:20;;;;;;;;;;;;;;;13.20;33.86;97977.90;1763733;80;20272;-65
2021/03/29 07:11:47;;;;;;;;;;;;;;;13.05;34.28;97972.66;1754259;81;20225;-66
2021/03/29 07:14:19;;;;;;;;;;;;;;;13.11;34.51;97981.89;1765162;78;20239;-67
2021/03/29 07:16:48;;;;;;;;;;;;;;;13.76;33.51;97974.97;1775295;79;20219;-67
2021/03/29 07:19:16;;;;;;;;;;;;;;;14.32;33.01;97976.27;1785915;80;21374;-66
2021/03/29 07:21:43;;;;;;;;;;;;;;;14.82;32.46;97971.81;1785896;80;20210;-66
2021/03/29 07:24:12;;;;;;;;;;;;;;;15.20;31.48;97974.98;1785924;79;20251;-67
2021/03/29 07:26:54;;;;;;;;;;;;;;;15.58;30.87;97977.59;1785884;80;20214;-67
2021/03/29 07:29:26;;;;;;;;;;;;;;;16.06;30.25;97974.78;1785963;80;20279;-68
2021/03/29 07:31:55;;;;;;;;;;;;;;;16.65;29.42;97970.94;1784665;78;22105;-67
2021/03/29 07:34:49;;;;;;;;;;;;;;;17.27;29.08;97977.72;1783385;79;20673;-67
2021/03/29 07:37:47;;;;;;;;;;;;;;;18.03;28.19;97975.39;1786023;80;20234;-68
2021/03/29 07:40:22;;;;;;;;;;;;;;;19.08;26.39;97975.34;1785945;80;20251;-67
2021/03/29 07:42:54;;;;;;;;;;;;;;;19.70;26.02;97981.97;1759104;80;20241;-67
2021/03/29 07:45:28;;;;;;;;;;;;;;;20.39;24.12;97975.52;1753958;80;21200;-67
2021/03/29 07:47:57;;;;;;;;;;;;;;;20.94;24.02;97980.28;1748117;81;20238;-68
2021/03/29 07:50:29;;;;;;;;;;;;;;;21.54;23.12;97981.86;1744735;82;20222;-67
2021/03/29 07:53:01;;;;;;;;;;;;;;;22.16;22.39;97983.48;1744699;81;20509;-68
2021/03/29 07:55:38;;;;;;;;;;;;;;;22.67;21.76;97981.24;1744795;82;20250;-68
2021/03/29 07:58:15;;;;;;;;;;;;;;;23.03;20.96;97985.20;1716854;82;21393;-69
2021/03/29 08:00:43;;;;;;;;;;;;;;;23.18;20.30;97985.52;1744064;82;20694;-68
2021/03/29 08:03:15;;;;;;;;;;;;;;;23.07;21.05;97989.22;1743557;82;20293;-69
2021/03/29 08:05:47;;;;;;;;;;;;;;;23.25;20.85;97993.16;1744218;81;20218;-69
2021/03/29 08:08:36;;;;;;;;;;;;;;;23.54;20.54;97993.38;1744292;82;20509;-68
2021/03/29 08:11:16;;;;;;;;;;;;;;;23.96;20.53;97996.59;1744303;82;21210;-69
2021/03/29 08:13:50;;;;;;;;;;;;;;;24.61;19.19;98001.82;1744095;80;21214;-68
2021/03/29 08:16:28;;;;;;;;;;;;;;;24.84;18.88;97999.36;1743846;82;20239;-68
2021/03/29 08:19:15;;;;;;;;;;;;;;;25.00;18.99;97995.90;1744164;81;20218;-69
2021/03/29 08:22:04;;;;;;;;;;;;;;;25.40;18.56;97990.76;1714398;82;20228;-69
2021/03/29 08:24:42;;;;;;;;;;;;;;;25.85;18.02;97995.44;1732971;81;21162;-69
2021/03/29 08:27:20;;;;;;;;;;;;;;;26.11;17.42;98002.38;1744123;82;20369;-68
2021/03/29 08:29:56;;;;;;;;;;;;;;;26.27;17.89;97996.16;1744223;82;20219;-68
2021/03/29 08:32:31;;;;;;;;;;;;;;;26.53;17.30;97997.19;1741874;82;20262;-68
2021/03/29 08:35:12;;;;;;;;;;;;;;;26.80;16.79;98003.84;1743603;81;20242;-69
2021/03/29 08:37:44;;;;;;;;;;;;;;;27.00;16.57;97988.20;1743433;82;21113;-69
2021/03/29 08:40:15;;;;;;;;;;;;;;;26.72;16.45;97999.09;1743374;82;20238;-69
2021/03/29 08:42:44;;;;;;;;;;;;;;;25.80;16.84;97999.13;1743444;82;20226;-68
2021/03/29 08:45:18;;;;;;;;;;;;;;;24.85;17.94;97998.34;1743321;82;20218;-68
2021/03/29 08:47:48;;;;;;;;;;;;;;;24.34;18.39;98000.22;1743866;80;20218;-65
2021/03/29 08:50:17;;;;;;;;;;;;;;;24.07;18.30;98006.91;1744274;82;22365;-68
2021/03/29 08:52:46;;;;;;;;;;;;;;;23.63;18.82;98003.52;1744122;82;20215;-69
2021/03/29 08:55:22;;;;;;;;;;;;;;;23.50;18.96;97998.16;1744216;82;20221;-68
2021/03/29 08:57:50;;;;;;;;;;;;;;;23.78;19.33;98005.91;1744203;82;20226;-68
2021/03/29 09:00:22;;;;;;;;;;;;;;;24.26;18.75;97997.06;1744120;82;20294;-68
2021/03/29 09:02:49;;;;;;;;;;;;;;;24.64;18.16;97999.32;1743643;81;21203;-68
2021/03/29 09:05:17;;;;;;;;;;;;;;;24.99;18.20;97998.20;1744063;82;20218;-70
2021/03/29 09:07:47;;;;;;;;;;;;;;;24.98;17.92;97996.06;1744179;82;20526;-68
2021/03/29 09:10:21;;;;;;;;;;;;;;;24.67;17.58;98004.30;1744150;82;20214;-68
2021/03/29 09:12:59;;;;;;;;;;;;;;;24.32;18.08;97999.05;1744223;82;20853;-68
2021/03/29 09:15:28;;;;;;;;;;;;;;;24.11;18.33;98002.63;1743686;82;21421;-67
2021/03/29 09:18:03;;;;;;;;;;;;;;;24.19;18.40;97998.67;1744020;82;20246;-67
2021/03/29 09:20:32;;;;;;;;;;;;;;;24.55;18.34;97994.00;1744167;81;20230;-68
2021/03/29 09:23:00;;;;;;;;;;;;;;;24.76;18.07;97996.19;1744161;82;20233;-68
2021/03/29 09:25:37;;;;;;;;;;;;;;;24.70;17.94;98003.47;1743928;82;20222;-68
2021/03/29 09:30:59;;;;;;;;;;;;;;;23.81;18.53;98003.45;1738599;81;20588;-68
2021/03/29 09:33:26;;;;;;;;;;;;;;;23.68;18.70;97998.58;1743993;80;20222;-67
2021/03/29 09:35:54;;;;;;;;;;;;;;;23.90;18.77;97999.90;1744145;82;20242;-65
2021/03/29 09:38:39;;;;;;;;;;;;;;;24.36;18.60;98003.05;1743151;82;20278;-68
2021/03/29 09:41:19;;;;;;;;;;;;;;;24.75;18.02;98003.84;1743573;82;21429;-68
2021/03/29 09:43:48;;;;;;;;;;;;;;;24.75;17.51;98009.15;1743804;81;20214;-68
2021/03/29 09:46:15;;;;;;;;;;;;;;;24.16;17.94;98016.23;1728691;82;20233;-65
2021/03/29 09:48:43;;;;;;;;;;;;;;;23.29;18.50;98002.95;1774359;78;20522;-67
2021/03/29 09:51:21;;;;;;;;;;;;;;;22.37;19.35;98008.88;1785589;79;20214;-68
2021/03/29 09:53:48;;;;;;;;;;;;;;;22.11;19.73;98002.92;1788335;79;21187;-68
2021/03/29 09:56:31;;;;;;;;;;;;;;;21.61;20.41;98012.02;1788128;79;20219;-67
2021/03/29 09:58:59;;;;;;;;;;;;;;;20.95;20.74;98012.30;1780324;79;20218;-68
2021/03/29 10:01:28;;;;;;;;;;;;;;;20.37;21.23;98017.46;1767161;79;20244;-68
2021/03/29 10:03:57;;;;;;;;;;;;;;;20.04;21.75;98012.85;1759185;80;20233;-67
2021/03/29 10:06:26;;;;;;;;;;;;;;;19.81;21.70;98016.98;1762210;78;21265;-69
2021/03/29 10:08:57;;;;;;;;;;;;;;;19.65;22.01;98014.81;1786643;80;20576;-67
2021/03/29 10:11:25;;;;;;;;;;;;;;;20.01;21.68;98011.30;1786641;79;20215;-66
2021/03/29 10:14:04;;;;;;;;;;;;;;;20.63;21.22;98006.41;1786611;80;20478;-68
2021/03/29 10:16:31;;;;;;;;;;;;;;;21.11;20.97;98009.57;1761258;80;20338;-67
2021/03/29 10:19:10;;;;;;;;;;;;;;;21.31;20.57;98013.84;1741040;82;21373;-68
2021/03/29 10:21:58;;;;;;;;;;;;;;;20.87;20.94;98011.30;1744070;82;20135;-68
2021/03/29 10:24:25;;;;;;;;;;;;;;;20.22;21.52;98015.69;1783720;79;20210;-68
2021/03/29 10:26:54;;;;;;;;;;;;;;;19.94;22.38;98019.40;1788002;80;21771;-67
2021/03/29 10:29:38;;;;;;;;;;;;;;;20.22;22.13;98014.38;1788297;79;20270;-68
2021/03/29 10:32:19;;;;;;;;;;;;;;;20.40;21.62;98009.28;1758376;80;21188;-68
2021/03/29 10:34:49;;;;;;;;;;;;;;;20.09;21.62;98008.51;1770136;80;20498;-68
2021/03/29 10:37:25;;;;;;;;;;;;;;;19.54;23.13;98006.98;1788556;80;20194;-68
2021/03/29 10:39:53;;;;;;;;;;;;;;;18.91;23.88;98006.50;1788264;80;20261;-69
2021/03/29 10:42:23;;;;;;;;;;;;;;;18.05;24.69;98011.22;1788371;80;20482;-69
2021/03/29 10:44:51;;;;;;;;;;;;;;;17.47;26.53;98011.63;1756143;80;21159;-69
2021/03/29 10:47:18;;;;;;;;;;;;;;;17.03;26.46;98011.03;1760001;80;20153;-67
2021/03/29 10:49:46;;;;;;;;;;;;;;;16.63;26.83;98013.46;1745497;81;20217;-68
2021/03/29 10:52:13;;;;;;;;;;;;;;;16.33;26.87;98021.73;1755278;81;20218;-69
2021/03/29 10:54:42;;;;;;;;;;;;;;;16.05;26.88;98022.84;1756254;81;20220;-70
2021/03/29 10:57:09;;;;;;;;;;;;;;;16.01;27.07;98015.68;1757143;81;21213;-70
2021/03/29 10:59:37;;;;;;;;;;;;;;;15.89;26.85;98020.45;1757073;81;20220;-71
2021/03/29 11:02:04;;;;;;;;;;;;;;;15.76;27.14;98014.77;1730570;81;20228;-69
2021/03/29 11:04:32;;;;;;;;;;;;;;;16.00;27.18;98014.00;1727057;83;20284;-70
2021/03/29 11:07:00;;;;;;;;;;;;;;;16.18;26.97;98011.87;1744614;81;20216;-70
2021/03/29 11:09:28;;;;;;;;;;;;;;;16.20;26.89;98024.41;1751690;81;21219;-70
2021/03/29 11:11:57;;;;;;;;;;;;;;;16.12;27.19;98022.80;1757020;81;20229;-70
2021/03/29 11:14:24;;;;;;;;;;;;;;;15.95;27.22;98020.03;1739562;81;20249;-71
2021/03/29 11:16:55;;;;;;;;;;;;;;;15.83;27.09;98023.03;1754272;81;20240;-71
2021/03/29 11:19:21;;;;;;;;;;;;;;;15.94;27.74;98017.89;1757176;81;20555;-70
2021/03/29 11:21:49;;;;;;;;;;;;;;;16.34;27.70;98020.31;1729713;81;23516;-70
2021/03/29 11:24:19;;;;;;;;;;;;;;;16.55;27.40;98013.18;1757168;81;20241;-71
2021/03/29 11:26:46;;;;;;;;;;;;;;;16.84;26.75;98009.75;1757128;81;20220;-70
2021/03/29 11:29:14;;;;;;;;;;;;;;;16.62;26.10;98001.78;1746413;81;20241;-70
2021/03/29 11:31:42;;;;;;;;;;;;;;;16.21;26.88;98009.52;1733936;81;20317;-70
2021/03/29 11:34:11;;;;;;;;;;;;;;;16.05;27.44;98011.06;1727540;81;22282;-70
2021/03/29 11:36:41;;;;;;;;;;;;;;;15.90;27.34;98004.64;1746954;81;20602;-70
2021/03/29 11:39:10;;;;;;;;;;;;;;;15.63;27.50;98014.73;1746904;81;20227;-70
2021/03/29 11:41:38;;;;;;;;;;;;;;;15.32;28.17;98010.75;1745792;82;20248;-70
2021/03/29 11:44:06;;;;;;;;;;;;;;;15.14;28.31;98011.52;1744869;81;20220;-70
2021/03/29 11:46:33;;;;;;;;;;;;;;;15.01;28.99;98011.48;1742749;80;21201;-70
2021/03/29 11:49:01;;;;;;;;;;;;;;;14.94;29.12;98014.14;1757877;80;20214;-69
2021/03/29 11:51:29;;;;;;;;;;;;;;;14.84;29.04;98006.06;1770226;81;20238;-69
2021/03/29 11:53:57;;;;;;;;;;;;;;;14.84;29.32;98001.31;1773437;80;20592;-70
2021/03/29 11:56:24;;;;;;;;;;;;;;;14.83;29.46;98008.30;1785282;79;20226;-70
2021/03/29 11:58:52;;;;;;;;;;;;;;;14.80;29.49;98003.30;1785307;80;21143;-70
2021/03/29 12:01:48;;;;;;;;;;;;;;;14.71;29.40;97999.48;1784200;80;20223;-70
2021/03/29 12:04:00;;;;;;;;;;;;;;;14.61;29.40;98000.20;1769641;80;20245;-70
2021/03/29 12:06:36;;;;;;;;;;;;;;;14.42;29.91;97994.80;1723818;82;20720;-70
2021/03/29 12:09:08;;;;;;;;;;;;;;;14.29;30.12;97998.68;1753317;82;20225;-71
2021/03/29 12:14:13;;;;;;;;;;;;;;;14.25;30.43;97993.74;1781102;80;21860;-69
2021/03/29 12:16:44;;;;;;;;;;;;;;;14.16;30.33;97993.83;1783538;79;20274;-69
2021/03/29 12:19:11;;;;;;;;;;;;;;;14.10;30.42;97995.55;1785291;80;20289;-68
2021/03/29 12:21:39;;;;;;;;;;;;;;;14.03;30.28;97989.87;1785083;79;20230;-70
2021/03/29 12:24:13;;;;;;;;;;;;;;;13.85;30.88;97992.29;1785298;79;21187;-69
2021/03/29 12:26:41;;;;;;;;;;;;;;;13.77;31.08;97987.56;1785287;79;20218;-69
2021/03/29 12:29:11;;;;;;;;;;;;;;;13.71;31.24;97989.23;1785353;79;20226;-69
2021/03/29 12:31:39;;;;;;;;;;;;;;;13.66;31.69;97984.77;1771120;79;20246;-68
2021/03/29 12:34:08;;;;;;;;;;;;;;;13.60;31.56;97986.83;1753832;80;20216;-70
2021/03/29 12:36:45;;;;;;;;;;;;;;;13.51;31.90;97980.02;1763202;80;21200;-70
2021/03/29 12:39:26;;;;;;;;;;;;;;;13.50;31.89;97980.94;1785185;79;20211;-70
2021/03/29 12:41:53;;;;;;;;;;;;;;;13.47;31.95;97978.52;1784444;77;20218;-69
2021/03/29 12:44:19;;;;;;;;;;;;;;;13.42;32.05;97982.25;1781043;80;20215;-69
2021/03/29 12:46:51;;;;;;;;;;;;;;;13.39;32.21;97979.82;1748677;80;20235;-69
2021/03/29 12:49:18;;;;;;;;;;;;;;;13.39;32.33;97978.99;1755966;81;21335;-70
2021/03/29 12:51:45;;;;;;;;;;;;;;;13.38;32.19;97979.44;1770664;81;20516;-70
2021/03/29 12:54:22;;;;;;;;;;;;;;;13.36;32.26;97978.70;1768013;81;20236;-70
2021/03/29 12:56:48;;;;;;;;;;;;;;;13.34;32.08;97981.01;1775209;79;20511;-69
2021/03/29 12:59:15;;;;;;;;;;;;;;;13.27;32.06;97977.90;1784448;79;21616;-70
2021/03/29 13:01:43;;;;;;;;;;;;;;;13.20;32.46;97980.03;1801795;78;21272;-70
2021/03/29 13:04:19;;;;;;;;;;;;;;;13.15;32.50;97972.13;1802199;78;20266;-70
2021/03/29 13:06:49;;;;;;;;;;;;;;;13.12;32.65;97977.52;1777769;79;20236;-70
2021/03/29 13:09:29;;;;;;;;;;;;;;;13.10;32.47;97978.08;1782023;79;20230;-70
2021/03/29 13:11:56;;;;;;;;;;;;;;;13.05;32.60;97975.73;1801230;79;20218;-71
2021/03/29 13:14:24;;;;;;;;;;;;;;;13.02;32.58;97977.20;1802311;79;21323;-70